createdAt,value
2019-05-18T00:02:22.663Z,83.68
2019-05-18T00:04:50.670Z,83.89
2019-05-18T00:07:19.790Z,84.21
2019-05-18T00:09:47.737Z,84.37
2019-05-18T00:12:15.586Z,85.09
2019-05-18T00:14:43.522Z,85.35
2019-05-18T00:17:24.533Z,85.75
2019-05-18T00:19:41.379Z,86.01
2019-05-18T00:22:09.402Z,86.32
2019-05-18T00:24:37.254Z,86.53
2019-05-18T00:27:05.342Z,86.81
2019-05-18T00:29:35.261Z,86.96
2019-05-18T00:32:03.631Z,87.42
2019-05-18T00:34:31.625Z,87.62
2019-05-18T00:36:59.708Z,87.73
2019-05-18T00:39:27.732Z,88.10
2019-05-18T00:41:55.665Z,88.37
2019-05-18T00:44:23.773Z,88.36
2019-05-18T00:46:51.772Z,88.36
2019-05-18T00:49:20.324Z,88.46
2019-05-18T00:51:48.399Z,88.36
2019-05-18T00:54:16.403Z,88.23
2019-05-18T00:56:44.566Z,88.23
2019-05-18T00:59:16.002Z,88.20
2019-05-18T01:01:42.813Z,88.46
2019-05-18T01:04:11.150Z,88.71
2019-05-18T01:06:39.284Z,88.84
2019-05-18T01:09:07.269Z,88.82
2019-05-18T01:11:35.337Z,88.93
2019-05-18T01:14:03.686Z,88.96
2019-05-18T01:16:31.971Z,89.02
2019-05-18T01:18:59.983Z,89.26
2019-05-18T01:21:28.013Z,89.48
2019-05-18T01:23:56.179Z,89.90
2019-05-18T01:26:24.357Z,90.02
2019-05-18T01:28:56.142Z,89.47
2019-05-18T01:31:23.987Z,89.50
2019-05-18T01:33:52.167Z,89.34
2019-05-18T01:36:20.124Z,89.30
2019-05-18T01:38:48.324Z,89.50
2019-05-18T01:41:16.267Z,89.62
2019-05-18T01:43:44.191Z,89.57
2019-05-18T01:46:12.005Z,89.74
2019-05-18T01:48:39.737Z,89.85
2019-05-18T01:51:07.648Z,89.90
2019-05-18T01:53:35.782Z,90.02
2019-05-18T01:56:03.791Z,89.88
2019-05-18T01:58:31.952Z,89.96
2019-05-18T02:00:59.462Z,89.71
2019-05-18T02:03:27.347Z,89.86
2019-05-18T02:05:55.086Z,90.50
2019-05-18T02:08:23.162Z,90.52
2019-05-18T02:10:50.983Z,90.76
2019-05-18T02:13:18.958Z,90.58
2019-05-18T02:15:46.814Z,90.90
2019-05-18T02:18:28.157Z,91.17
2019-05-18T02:20:44.925Z,91.80
2019-05-18T02:23:12.926Z,92.19
2019-05-18T02:25:41.563Z,92.47
2019-05-18T02:28:09.744Z,92.46
2019-05-18T02:30:37.721Z,92.37
2019-05-18T02:33:05.821Z,92.41
2019-05-18T02:35:33.862Z,92.17
2019-05-18T02:38:15.537Z,92.31
2019-05-18T02:40:45.452Z,92.07
2019-05-18T02:43:13.471Z,92.03
2019-05-18T02:45:41.560Z,92.35
2019-05-18T02:48:09.679Z,92.55
2019-05-18T02:50:38.002Z,92.54
2019-05-18T02:53:06.085Z,92.93
2019-05-18T02:55:34.069Z,93.03
2019-05-18T02:58:01.972Z,92.54
2019-05-18T03:00:30.038Z,92.53
2019-05-18T03:02:57.950Z,92.39
2019-05-18T03:05:25.906Z,91.92
2019-05-18T03:07:53.717Z,92.05
2019-05-18T03:10:21.763Z,92.19
2019-05-18T03:12:49.544Z,92.55
2019-05-18T03:15:17.408Z,92.82
2019-05-18T03:17:45.410Z,92.69
2019-05-18T03:20:13.426Z,92.42
2019-05-18T03:22:41.329Z,92.48
2019-05-18T03:25:09.573Z,92.78
2019-05-18T03:27:37.497Z,92.90
2019-05-18T03:30:05.510Z,93.12
2019-05-18T03:32:33.483Z,93.16
2019-05-18T03:35:01.659Z,92.83
2019-05-18T03:37:29.604Z,92.69
2019-05-18T03:39:57.582Z,92.76
2019-05-18T03:42:25.634Z,92.76
2019-05-18T03:44:53.643Z,92.46
2019-05-18T03:47:21.609Z,92.71
2019-05-18T03:49:49.688Z,92.80
2019-05-18T03:52:17.851Z,93.04
2019-05-18T03:54:45.652Z,93.33
2019-05-18T03:57:13.568Z,93.35
2019-05-18T03:59:41.431Z,93.42
2019-05-18T04:02:09.333Z,93.41
2019-05-18T04:04:37.265Z,93.54
2019-05-18T04:07:05.252Z,93.55
2019-05-18T04:09:33.053Z,93.82
2019-05-18T04:12:00.979Z,93.94
2019-05-18T04:14:29.103Z,94.06
2019-05-18T04:16:57.711Z,94.05
2019-05-18T04:19:42.969Z,94.13
2019-05-18T04:21:55.622Z,94.32
2019-05-18T04:24:23.498Z,94.13
2019-05-18T04:26:51.504Z,93.96
2019-05-18T04:29:19.283Z,93.73
2019-05-18T04:31:46.923Z,93.54
2019-05-18T04:34:14.857Z,92.92
2019-05-18T04:36:42.921Z,92.39
2019-05-18T04:39:10.865Z,91.80
2019-05-18T04:41:38.434Z,91.52
2019-05-18T04:44:06.447Z,91.13
2019-05-18T04:46:34.414Z,89.78
2019-05-18T04:49:02.444Z,89.11
2019-05-18T04:51:30.257Z,88.29
2019-05-18T04:53:58.091Z,87.84
2019-05-18T04:56:25.889Z,87.06
2019-05-18T04:58:53.994Z,86.35
2019-05-18T05:01:22.037Z,85.90
2019-05-18T05:03:50.151Z,85.38
2019-05-18T05:06:18.195Z,84.79
2019-05-18T05:08:46.267Z,84.48
2019-05-18T05:11:14.202Z,84.80
2019-05-18T05:13:42.553Z,84.64
2019-05-18T05:16:10.661Z,83.77
2019-05-18T05:18:38.564Z,83.85
2019-05-18T05:21:06.969Z,83.15
2019-05-18T05:23:34.901Z,82.29
2019-05-18T05:26:03.107Z,82.18
2019-05-18T05:28:30.975Z,82.45
2019-05-18T05:30:58.870Z,81.29
2019-05-18T05:33:26.630Z,81.10
2019-05-18T05:35:54.719Z,80.44
2019-05-18T05:38:22.519Z,81.47
2019-05-18T05:40:50.639Z,79.91
2019-05-18T05:43:20.155Z,80.01
2019-05-18T05:45:48.116Z,79.37
2019-05-18T05:48:16.273Z,78.58
2019-05-18T05:50:44.149Z,78.05
2019-05-18T05:53:11.965Z,78.00
2019-05-18T05:55:39.892Z,77.89
2019-05-18T05:58:07.987Z,77.53
2019-05-18T06:00:35.519Z,77.70
2019-05-18T06:03:03.451Z,77.02
2019-05-18T06:05:31.333Z,76.71
2019-05-18T06:07:59.266Z,76.39
2019-05-18T06:10:27.793Z,76.16
2019-05-18T06:12:55.662Z,75.79
2019-05-18T06:15:24.879Z,75.98
2019-05-18T06:17:52.609Z,76.11
2019-05-18T06:20:20.408Z,75.21
2019-05-18T06:22:48.267Z,76.11
2019-05-18T06:25:16.173Z,74.36
2019-05-18T06:27:44.084Z,73.98
2019-05-18T06:30:13.120Z,74.89
2019-05-18T06:32:41.128Z,73.93
2019-05-18T06:35:09.261Z,75.05
2019-05-18T06:37:37.393Z,74.43
2019-05-18T06:40:05.301Z,73.93
2019-05-18T06:42:33.317Z,73.95
2019-05-18T06:45:01.252Z,73.92
2019-05-18T06:47:29.359Z,74.03
2019-05-18T06:49:57.281Z,73.94
2019-05-18T06:52:25.331Z,74.35
2019-05-18T06:54:53.241Z,73.13
2019-05-18T06:57:22.144Z,73.74
2019-05-18T06:59:50.075Z,73.90
2019-05-18T07:02:17.973Z,73.57
2019-05-18T07:04:46.041Z,72.64
2019-05-18T07:07:13.920Z,73.53
2019-05-18T07:09:41.870Z,72.93
2019-05-18T07:12:09.809Z,72.52
2019-05-18T07:14:37.939Z,72.01
2019-05-18T07:17:05.955Z,71.12
2019-05-18T07:19:33.857Z,71.90
2019-05-18T07:22:01.959Z,70.07
2019-05-18T07:24:29.887Z,69.04
2019-05-18T07:26:57.891Z,68.99
2019-05-18T07:29:25.950Z,68.83
2019-05-18T07:31:53.656Z,69.13
2019-05-18T07:34:21.587Z,67.21
2019-05-18T07:36:49.784Z,67.01
2019-05-18T07:39:17.756Z,67.57
2019-05-18T07:41:47.221Z,67.09
2019-05-18T07:44:15.463Z,68.09
2019-05-18T07:46:43.453Z,68.25
2019-05-18T07:49:11.629Z,67.87
2019-05-18T07:51:40.901Z,67.56
2019-05-18T07:54:09.011Z,67.48
2019-05-18T07:56:36.864Z,67.17
2019-05-18T07:59:04.901Z,67.40
2019-05-18T08:01:32.947Z,67.09
2019-05-18T08:04:00.680Z,66.53
2019-05-18T08:06:28.761Z,66.13
2019-05-18T08:08:56.499Z,66.50
2019-05-18T08:11:24.485Z,66.81
2019-05-18T08:13:52.635Z,66.74
2019-05-18T08:16:20.325Z,66.86
2019-05-18T08:18:48.156Z,66.36
2019-05-18T08:21:16.053Z,67.12
2019-05-18T08:23:43.880Z,67.52
2019-05-18T08:26:11.839Z,66.62
2019-05-18T08:28:39.607Z,67.24
2019-05-18T08:31:07.744Z,67.52
2019-05-18T08:33:35.617Z,67.37
2019-05-18T08:36:03.213Z,67.33
2019-05-18T08:38:31.159Z,66.87
2019-05-18T08:41:00.300Z,67.59
2019-05-18T08:43:28.347Z,68.19
2019-05-18T08:45:56.420Z,68.28
2019-05-18T08:48:24.427Z,68.61
2019-05-18T08:50:52.784Z,69.04
2019-05-18T08:53:20.964Z,69.45
2019-05-18T08:55:49.779Z,70.42
2019-05-18T08:58:17.677Z,70.05
2019-05-18T09:00:45.777Z,70.75
2019-05-18T09:03:13.396Z,70.90
2019-05-18T09:05:41.287Z,69.57
2019-05-18T09:08:08.979Z,69.75
2019-05-18T09:10:36.683Z,70.16
2019-05-18T09:13:04.315Z,70.56
2019-05-18T09:15:32.023Z,70.34
2019-05-18T09:17:59.603Z,69.63
2019-05-18T09:20:27.214Z,69.49
2019-05-18T09:22:54.883Z,69.86
2019-05-18T09:25:22.565Z,68.51
2019-05-18T09:27:50.394Z,69.04
2019-05-18T09:30:18.225Z,67.88
2019-05-18T09:32:45.906Z,68.91
2019-05-18T09:35:13.631Z,68.75
2019-05-18T09:37:41.349Z,68.82
2019-05-18T09:40:10.044Z,69.16
2019-05-18T09:42:37.701Z,69.55
2019-05-18T09:45:06.640Z,68.68
2019-05-18T09:47:34.756Z,68.02
2019-05-18T09:50:02.660Z,67.47
2019-05-18T09:52:44.114Z,68.31
2019-05-18T09:55:00.431Z,67.86
2019-05-18T09:57:28.370Z,68.12
2019-05-18T09:59:56.275Z,69.38
2019-05-18T10:02:24.049Z,68.61
2019-05-18T10:04:52.087Z,68.29
2019-05-18T10:07:20.037Z,68.57
2019-05-18T10:09:48.068Z,69.12
2019-05-18T10:12:15.952Z,68.47
2019-05-18T10:14:43.986Z,68.45
2019-05-18T10:17:11.871Z,69.17
2019-05-18T10:19:39.921Z,69.69
2019-05-18T10:22:09.102Z,68.75
2019-05-18T10:24:37.132Z,69.64
2019-05-18T10:27:05.285Z,69.78
2019-05-18T10:29:33.316Z,68.76
2019-05-18T10:32:01.367Z,67.94
2019-05-18T10:34:29.354Z,66.97
2019-05-18T10:36:57.564Z,67.54
2019-05-18T10:39:25.234Z,66.35
2019-05-18T10:41:52.943Z,66.18
2019-05-18T10:44:20.710Z,66.13
2019-05-18T10:46:48.368Z,64.54
2019-05-18T10:49:16.488Z,64.58
2019-05-18T10:51:44.422Z,64.67
2019-05-18T10:54:12.349Z,65.11
2019-05-18T10:56:40.366Z,66.67
2019-05-18T10:59:08.480Z,65.76
2019-05-18T11:01:38.005Z,63.89
2019-05-18T11:04:06.320Z,65.45
2019-05-18T11:06:34.164Z,64.71
2019-05-18T11:09:02.046Z,64.13
2019-05-18T11:11:30.140Z,63.56
2019-05-18T11:13:58.228Z,64.12
2019-05-18T11:16:26.107Z,64.64
2019-05-18T11:18:54.226Z,64.70
2019-05-18T11:21:22.290Z,63.52
2019-05-18T11:23:50.204Z,62.46
2019-05-18T11:26:18.167Z,62.80
2019-05-18T11:28:45.854Z,62.94
2019-05-18T11:31:13.449Z,58.39
2019-05-18T11:33:42.066Z,58.22
2019-05-18T11:36:10.359Z,59.44
2019-05-18T11:38:40.994Z,57.78
2019-05-18T11:41:08.961Z,58.65
2019-05-18T11:43:37.218Z,57.29
2019-05-18T11:46:05.238Z,55.81
2019-05-18T11:48:33.397Z,55.72
2019-05-18T11:51:01.242Z,55.10
2019-05-18T11:53:29.440Z,55.69
2019-05-18T11:55:57.546Z,56.60
2019-05-18T11:58:25.607Z,57.12
2019-05-18T12:00:53.530Z,56.11
2019-05-18T12:03:21.177Z,56.29
2019-05-18T12:05:48.739Z,56.51
2019-05-18T12:08:16.247Z,55.62
2019-05-18T12:10:44.303Z,55.08
2019-05-18T12:13:12.131Z,56.45
2019-05-18T12:15:40.048Z,56.01
2019-05-18T12:18:07.847Z,57.42
2019-05-18T12:20:35.862Z,54.55
2019-05-18T12:23:07.970Z,54.25
2019-05-18T12:25:33.861Z,53.13
2019-05-18T12:28:02.115Z,53.13
2019-05-18T12:30:30.329Z,51.26
2019-05-18T12:32:58.279Z,52.13
2019-05-18T12:35:26.493Z,51.85
2019-05-18T12:37:54.261Z,51.38
2019-05-18T12:40:22.152Z,52.29
2019-05-18T12:42:50.152Z,54.51
2019-05-18T12:45:18.298Z,50.82
2019-05-18T12:47:46.405Z,50.38
2019-05-18T12:50:15.619Z,49.58
2019-05-18T12:52:43.796Z,51.42
2019-05-18T12:55:13.299Z,49.98
2019-05-18T12:57:41.047Z,49.36
2019-05-18T13:00:10.063Z,50.11
2019-05-18T13:02:37.784Z,50.33
2019-05-18T13:05:05.734Z,50.30
2019-05-18T13:07:33.583Z,50.30
2019-05-18T13:10:01.660Z,51.66
2019-05-18T13:12:30.262Z,51.79
2019-05-18T13:14:58.451Z,51.59
2019-05-18T13:17:26.527Z,52.52
2019-05-18T13:19:54.536Z,52.15
2019-05-18T13:22:22.526Z,53.92
2019-05-18T13:24:52.254Z,51.42
2019-05-18T13:27:21.223Z,50.91
2019-05-18T13:29:48.931Z,51.96
2019-05-18T13:32:16.626Z,53.47
2019-05-18T13:34:44.280Z,51.84
2019-05-18T13:37:11.948Z,52.92
2019-05-18T13:39:39.749Z,52.06
2019-05-18T13:42:07.427Z,51.14
2019-05-18T13:44:38.026Z,51.36
2019-05-18T13:47:04.494Z,51.55
2019-05-18T13:49:32.224Z,52.53
2019-05-18T13:51:59.918Z,51.87
2019-05-18T13:54:27.631Z,51.66
2019-05-18T13:56:55.269Z,52.85
2019-05-18T13:59:22.831Z,52.35
2019-05-18T14:01:50.369Z,52.67
2019-05-18T14:04:17.978Z,54.45
2019-05-18T14:06:45.564Z,50.09
2019-05-18T14:09:13.246Z,52.04
2019-05-18T14:11:41.058Z,48.63
2019-05-18T14:14:09.064Z,52.18
2019-05-18T14:16:36.977Z,53.23
2019-05-18T14:19:04.668Z,48.86
2019-05-18T14:21:32.333Z,49.61
2019-05-18T14:23:59.977Z,50.61
2019-05-18T14:26:27.632Z,51.32
2019-05-18T14:28:55.359Z,53.12
2019-05-18T14:31:23.064Z,51.82
2019-05-18T14:33:50.698Z,51.42
2019-05-18T14:36:18.294Z,52.23
2019-05-18T14:38:46.349Z,52.20
2019-05-18T14:41:14.360Z,51.91
2019-05-18T14:43:42.394Z,51.40
2019-05-18T14:46:10.378Z,51.98
2019-05-18T14:48:40.483Z,53.03
2019-05-18T14:51:09.962Z,54.35
2019-05-18T14:53:37.862Z,51.35
2019-05-18T14:56:06.022Z,53.33
2019-05-18T14:58:33.772Z,51.82
2019-05-18T15:01:01.964Z,56.48
2019-05-18T15:03:29.936Z,54.38
2019-05-18T15:05:57.802Z,55.26
2019-05-18T15:08:25.680Z,52.81
2019-05-18T15:10:53.289Z,53.36
2019-05-18T15:13:21.273Z,50.66
2019-05-18T15:15:49.162Z,51.47
2019-05-18T15:18:17.040Z,52.12
2019-05-18T15:20:45.252Z,54.63
2019-05-18T15:23:13.105Z,54.66
2019-05-18T15:25:50.126Z,54.90
2019-05-18T15:28:10.746Z,56.15
2019-05-18T15:30:38.364Z,53.36
2019-05-18T15:33:05.952Z,51.39
2019-05-18T15:35:33.983Z,52.86
2019-05-18T15:38:01.843Z,53.56
2019-05-18T15:40:29.612Z,53.87
2019-05-18T15:42:57.468Z,53.68
2019-05-18T15:45:25.498Z,54.41
2019-05-18T15:47:53.206Z,55.96
2019-05-18T15:50:20.839Z,55.16
2019-05-18T15:52:48.392Z,55.02
2019-05-18T15:55:15.981Z,54.41
2019-05-18T15:57:43.509Z,55.44
2019-05-18T16:00:11.313Z,55.10
2019-05-18T16:02:38.985Z,55.19
2019-05-18T16:05:07.061Z,55.87
2019-05-18T16:07:34.619Z,55.56
2019-05-18T16:10:02.416Z,55.27
2019-05-18T16:12:31.646Z,56.00
2019-05-18T16:14:59.247Z,55.85
2019-05-18T16:17:38.951Z,55.29
2019-05-18T16:19:58.244Z,55.22
2019-05-18T16:22:25.767Z,55.56
2019-05-18T16:24:53.885Z,56.09
2019-05-18T16:27:21.518Z,56.36
2019-05-18T16:29:49.159Z,55.85
2019-05-18T16:32:16.727Z,55.69
2019-05-18T16:34:44.393Z,55.61
2019-05-18T16:37:11.928Z,56.22
2019-05-18T16:39:39.665Z,56.92
2019-05-18T16:42:07.211Z,57.24
2019-05-18T16:44:34.858Z,57.21
2019-05-18T16:47:06.521Z,57.62
2019-05-18T16:50:00.332Z,57.52
2019-05-18T16:52:28.126Z,58.42
2019-05-18T16:54:57.149Z,58.45
2019-05-18T16:57:24.975Z,58.38
2019-05-18T16:59:52.618Z,58.39
2019-05-18T17:02:31.163Z,57.58
2019-05-18T17:04:52.156Z,57.79
2019-05-18T17:07:20.622Z,57.66
2019-05-18T17:09:50.473Z,57.69
2019-05-18T17:12:18.634Z,57.82
2019-05-18T17:14:46.677Z,58.06
2019-05-18T17:17:14.531Z,58.68
2019-05-18T17:19:42.516Z,58.37
2019-05-18T17:22:10.469Z,58.55
2019-05-18T17:24:40.074Z,59.38
2019-05-18T17:27:08.090Z,59.05
2019-05-18T17:29:36.042Z,60.05
2019-05-18T17:32:04.073Z,59.53
2019-05-18T17:34:32.036Z,59.49
2019-05-18T17:37:00.134Z,59.97
2019-05-18T17:39:28.209Z,59.96
2019-05-18T17:41:56.277Z,60.71
2019-05-18T17:44:24.259Z,61.90
2019-05-18T17:46:52.353Z,62.20
2019-05-18T17:49:26.884Z,61.79
2019-05-18T17:51:51.179Z,61.19
2019-05-18T17:54:19.072Z,61.45
2019-05-18T17:56:46.931Z,62.03
2019-05-18T17:59:14.852Z,63.27
2019-05-18T18:01:42.855Z,63.59
2019-05-18T18:04:10.908Z,63.55
2019-05-18T18:06:38.928Z,62.95
2019-05-18T18:09:07.157Z,63.51
2019-05-18T18:11:35.394Z,64.13
2019-05-18T18:14:03.800Z,64.32
2019-05-18T18:16:31.918Z,64.00
2019-05-18T18:18:59.988Z,63.92
2019-05-18T18:21:27.960Z,63.91
2019-05-18T18:23:56.379Z,63.58
2019-05-18T18:26:25.030Z,64.17
2019-05-18T18:28:52.873Z,65.16
2019-05-18T18:31:21.012Z,65.33
2019-05-18T18:33:48.624Z,65.33
2019-05-18T18:36:16.491Z,65.37
2019-05-18T18:38:44.461Z,65.38
2019-05-18T18:41:12.350Z,66.08
2019-05-18T18:43:40.185Z,66.44
2019-05-18T18:46:08.622Z,67.30
2019-05-18T18:48:36.499Z,67.77
2019-05-18T18:51:04.230Z,68.27
2019-05-18T18:53:31.965Z,68.53
2019-05-18T18:55:59.689Z,69.26
2019-05-18T18:58:27.416Z,69.64
2019-05-18T19:00:55.087Z,69.97
2019-05-18T19:03:22.937Z,70.49
2019-05-18T19:05:50.625Z,71.14
2019-05-18T19:08:18.664Z,71.66
2019-05-18T19:10:46.455Z,71.95
2019-05-18T19:13:14.255Z,72.57
2019-05-18T19:15:41.954Z,72.71
2019-05-18T19:18:09.793Z,72.92
2019-05-18T19:20:37.477Z,73.64
2019-05-18T19:23:05.262Z,73.87
2019-05-18T19:25:32.942Z,74.32
2019-05-18T19:28:00.828Z,74.55
2019-05-18T19:30:28.498Z,75.33
2019-05-18T19:32:56.215Z,75.63
2019-05-18T19:35:23.840Z,76.05
2019-05-18T19:37:51.936Z,76.78
2019-05-18T19:40:19.698Z,77.12
2019-05-18T19:42:47.478Z,77.66
2019-05-18T19:45:15.342Z,77.88
2019-05-18T19:47:43.146Z,78.33
2019-05-18T19:50:11.270Z,79.04
2019-05-18T19:52:39.019Z,79.37
2019-05-18T19:55:06.906Z,80.06
2019-05-18T19:57:34.688Z,79.71
2019-05-18T20:00:04.093Z,80.16
2019-05-18T20:02:32.347Z,80.44
2019-05-18T20:05:07.313Z,80.42
2019-05-18T20:07:31.140Z,80.18
2019-05-18T20:09:59.246Z,80.56
2019-05-18T20:12:27.669Z,80.88
2019-05-18T20:14:56.845Z,80.95
2019-05-18T20:17:25.137Z,81.28
2019-05-18T20:19:54.073Z,81.57
2019-05-18T20:22:28.813Z,81.79
2019-05-18T20:25:00.573Z,81.92
2019-05-18T20:27:37.222Z,81.93
2019-05-18T20:30:10.093Z,82.11
2019-05-18T20:32:44.767Z,82.54
2019-05-18T20:35:13.956Z,82.59
2019-05-18T20:37:41.938Z,82.56
2019-05-18T20:40:10.557Z,82.64
2019-05-18T20:42:38.967Z,82.71
2019-05-18T20:45:07.526Z,83.01
2019-05-18T20:47:35.820Z,83.26
2019-05-18T20:50:03.899Z,83.38
2019-05-18T20:52:32.390Z,83.74
2019-05-18T20:55:00.564Z,84.01
2019-05-18T20:57:29.894Z,83.99
2019-05-18T20:59:58.432Z,84.14
2019-05-18T21:05:25.229Z,84.35
2019-05-18T21:07:58.003Z,84.26
2019-05-18T21:10:26.944Z,84.18
2019-05-18T21:12:55.286Z,84.59
2019-05-18T21:15:41.499Z,84.30
2019-05-18T21:18:09.869Z,84.65
2019-05-18T21:20:38.688Z,84.58
2019-05-18T21:23:09.582Z,84.76
2019-05-18T21:29:09.186Z,85.07
2019-05-18T21:31:38.454Z,85.24
2019-05-18T21:34:08.529Z,85.05
2019-05-18T21:36:37.268Z,85.45
2019-05-18T21:39:05.287Z,85.81
2019-05-18T21:41:33.224Z,86.07
2019-05-18T21:44:01.094Z,85.84
2019-05-18T21:46:29.282Z,85.88
2019-05-18T21:48:57.465Z,85.86
2019-05-18T21:51:25.776Z,86.07
2019-05-18T21:53:54.494Z,86.25
2019-05-18T21:56:23.534Z,86.46
2019-05-18T21:58:54.771Z,86.67
2019-05-18T22:01:23.021Z,86.23
2019-05-18T22:04:35.531Z,86.64
2019-05-18T22:11:10.252Z,86.78
2019-05-18T22:11:33.768Z,86.84
2019-05-18T22:14:06.149Z,86.91
2019-05-18T22:17:34.068Z,86.99
2019-05-18T22:24:01.176Z,88.31
2019-05-18T22:26:59.878Z,88.33
2019-05-18T22:30:38.179Z,88.54
2019-05-18T22:33:09.990Z,88.84
2019-05-18T22:35:38.631Z,88.95
2019-05-18T22:38:06.828Z,88.96
2019-05-18T22:40:35.028Z,89.13
2019-05-18T22:43:03.113Z,89.15
2019-05-18T22:45:31.444Z,88.98
2019-05-18T22:47:59.815Z,89.11
2019-05-18T22:50:27.936Z,89.41
2019-05-18T22:52:56.328Z,89.52
2019-05-18T22:55:24.455Z,89.71
2019-05-18T22:57:55.318Z,89.79
2019-05-18T23:00:23.755Z,89.67
2019-05-18T23:02:52.920Z,89.74
2019-05-18T23:05:21.390Z,89.85
2019-05-18T23:07:49.676Z,89.83
2019-05-18T23:10:17.839Z,90.00
2019-05-18T23:12:46.190Z,90.02
2019-05-18T23:15:14.494Z,89.89
2019-05-18T23:17:42.691Z,89.94
2019-05-18T23:20:11.348Z,90.01
2019-05-18T23:22:39.592Z,90.07
2019-05-18T23:25:08.071Z,90.30
2019-05-18T23:27:36.287Z,90.71
2019-05-18T23:30:04.507Z,90.83
2019-05-18T23:32:32.455Z,90.94
2019-05-18T23:35:01.136Z,90.97
2019-05-18T23:37:29.016Z,91.35
2019-05-18T23:39:56.653Z,91.53
2019-05-18T23:42:24.351Z,91.44
2019-05-18T23:44:53.001Z,91.14
2019-05-18T23:47:21.069Z,91.14
2019-05-18T23:49:48.996Z,90.74
2019-05-18T23:52:18.531Z,91.15
2019-05-18T23:54:46.411Z,91.63
2019-05-18T23:57:14.303Z,92.07
2019-05-18T23:59:42.007Z,92.23
